עמוד ראשי
METAR-TAF:

METAR-TAF

שדות תעופה :

Calama, צ'ילה

קו רוחב: 22-29-59S, קו אורך: 068-54-29W, גובה: 2299מטר

תצפית מזג אוויר נוכחית

הדו"ח נערך לפני 38דקות, בשעה 10:00 UTC
רוח 20קשר מכיוון מזרח/דרום-מזרח
טמפרטורת 2 צלסיוס
לחות 32%
לחץ 1026 hPa
ראות 10 קילומטר או יותר
ללא עננים שבסיסם נמוך מ 5000 רגל או קומולונימבוס

METAR: SCCF 241000Z 12020KT CAVOK 02/M13 Q1026

זמן: 06:38 (10:38 UTC)

תחזית

הדו"ח נערך לפני 5 שעות ו 47דקות, בשעה 04:51 UTC
תחזית בתוקף מ 24 ב 06 UTC עד 25 ב 06 UTC
רוח 17קשר מכיוון מזרח
ראות 10 קילומטר או יותר
ללא עננים שבסיסם נמוך מ 5000 רגל או קומולונימבוס
יעשה מ
24 ב 14 UTC עד 24 ב 16 UTC
רוח 7קשר מכיוון מזרח/דרום-מזרח
יעשה מ
24 ב 17 UTC עד 24 ב 19 UTC
רוח 20קשר מכיוון מערב/צפון-מערב
יעשה מ
24 ב 22 UTC עד 25 ב 00 UTC
רוח 10קשר מכיוון מערב/צפון-מערב
יעשה מ
25 ב 03 UTC עד 25 ב 05 UTC
רוח 15קשר מכיוון מזרח/דרום-מזרח

TAF: SCCF 240451Z 2406/2506 10017KT CAVOK TNM01/2406Z TX21/2418Z BECMG 2414/2416 11007KT BECMG 2417/2419 29020KT BECMG 2422/2500 29010KT BECMG 2503/2505 11015KT

תצפיות ותחזיות מזג אוויר לגבי יותר מ- 4,000 שדות תעופה ברחבי העולם. דוחות METAR ו- TAF.

התחנות הזמינות מסומנות בנקודות צהובות ואדומות על גבי המפה.

העבר את העכבר לנקודה הצבעונית על מנת לראות את שם התחנה.

לאחר מכן, לחץ כדי לראות את תוכן ואת תחזיות מזג האוויר.

כדי לשנות את המפה: לחץ על הכפתורים הירוקים עם הפלוס השחור כדי להתקרב; על הכפתור הירוק עם המקף כדי להתרחק; או בחיצים הירוקים למפות סמוכות.


METAR-TAF: